Time,TemperatureF,DewpointF,PressureIn,WindDirection,WindDirectionDegrees,WindSpeedMPH,WindSpeedGustMPH,Humidity,HourlyPrecipIn,Conditions,Clouds,dailyrainin,SoftwareType,DateUTC
2013-05-08 00:03:00,47.7,36.9,30.03,North,0,0.0,0.9,66,0.00,,,0.00,WUHU216HW,2013-05-08 04:03:00,
2013-05-08 00:08:00,47.5,37.4,30.03,SE,135,0.0,0.9,68,0.00,,,0.00,WUHU216HW,2013-05-08 04:08:00,
2013-05-08 00:13:00,47.2,37.2,30.03,SE,135,0.0,0.9,68,0.00,,,0.00,WUHU216HW,2013-05-08 04:13:00,
2013-05-08 00:18:00,47.2,36.7,30.03,WSW,248,0.7,0.7,67,0.00,,,0.00,WUHU216HW,2013-05-08 04:18:00,
2013-05-08 00:23:00,47.2,36.0,30.03,West,270,0.4,0.7,65,0.00,,,0.00,WUHU216HW,2013-05-08 04:23:00,
2013-05-08 00:28:00,47.0,36.2,30.04,West,270,0.0,0.7,66,0.00,,,0.00,WUHU216HW,2013-05-08 04:28:00,
2013-05-08 00:33:00,46.8,36.5,30.04,West,270,0.0,0.4,67,0.00,,,0.00,WUHU216HW,2013-05-08 04:33:00,
2013-05-08 00:39:00,46.4,35.6,30.04,West,270,0.0,0.0,66,0.00,,,0.00,WUHU216HW,2013-05-08 04:39:00,
2013-05-08 00:44:00,46.3,31.3,30.04,NW,315,1.1,1.3,56,0.00,,,0.00,WUHU216HW,2013-05-08 04:44:00,
2013-05-08 00:49:00,46.3,33.6,30.04,NW,315,0.4,1.3,61,0.00,,,0.00,WUHU216HW,2013-05-08 04:49:00,
2013-05-08 00:54:00,46.1,34.1,30.04,NNW,338,0.0,0.9,63,0.00,,,0.00,WUHU216HW,2013-05-08 04:54:00,
2013-05-08 00:59:00,46.1,34.6,30.04,NNW,338,0.0,0.4,64,0.00,,,0.00,WUHU216HW,2013-05-08 04:59:00,
2013-05-08 01:04:00,45.9,34.4,30.04,NNW,338,0.0,0.0,64,0.00,,,0.00,WUHU216HW,2013-05-08 05:04:00,
2013-05-08 01:09:00,45.7,34.6,30.04,NNW,338,0.0,0.0,65,0.00,,,0.00,WUHU216HW,2013-05-08 05:09:00,
2013-05-08 01:14:00,45.5,34.8,30.04,NNW,338,0.0,0.0,66,0.00,,,0.00,WUHU216HW,2013-05-08 05:14:00,
2013-05-08 01:19:00,45.4,34.7,30.04,NNW,338,0.0,0.0,66,0.00,,,0.00,WUHU216HW,2013-05-08 05:19:00,
2013-05-08 01:24:00,45.0,34.7,30.04,NNW,338,0.0,0.0,67,0.00,,,0.00,WUHU216HW,2013-05-08 05:24:00,
2013-05-08 01:29:00,45.0,34.7,30.04,NNW,338,0.0,0.0,67,0.00,,,0.00,WUHU216HW,2013-05-08 05:29:00,
2013-05-08 01:34:00,44.6,33.6,30.04,NNW,338,0.0,0.0,65,0.00,,,0.00,WUHU216HW,2013-05-08 05:34:00,
2013-05-08 01:39:00,44.5,30.2,30.04,NNW,338,0.0,0.0,57,0.00,,,0.00,WUHU216HW,2013-05-08 05:39:00,
2013-05-08 01:44:00,44.5,30.6,30.04,NNW,338,0.0,0.0,58,0.00,,,0.00,WUHU216HW,2013-05-08 05:44:00,
2013-05-08 01:49:00,44.5,31.9,30.04,NNW,338,0.0,0.0,61,0.00,,,0.00,WUHU216HW,2013-05-08 05:49:00,
2013-05-08 01:54:00,44.3,32.5,30.04,NNW,338,0.0,0.0,63,0.00,,,0.00,WUHU216HW,2013-05-08 05:54:00,
2013-05-08 01:59:00,44.1,32.7,30.04,NNW,338,0.0,0.0,64,0.00,,,0.00,WUHU216HW,2013-05-08 05:59:00,
2013-05-08 02:04:00,43.9,32.1,30.04,NNW,338,0.0,0.0,63,0.00,,,0.00,WUHU216HW,2013-05-08 06:04:00,
2013-05-08 02:09:00,43.7,32.0,30.04,NNW,338,0.0,0.0,63,0.00,,,0.00,WUHU216HW,2013-05-08 06:09:00,
2013-05-08 02:14:00,43.6,31.8,30.04,NNW,338,0.0,0.0,63,0.00,,,0.00,WUHU216HW,2013-05-08 06:14:00,
2013-05-08 02:19:00,43.4,31.6,30.04,NNW,338,0.0,0.0,63,0.00,,,0.00,WUHU216HW,2013-05-08 06:19:00,
2013-05-08 02:24:00,43.4,31.2,30.04,NNW,338,0.0,0.0,62,0.00,,,0.00,WUHU216HW,2013-05-08 06:24:00,
2013-05-08 02:29:00,43.4,27.4,30.04,NNW,338,0.4,0.4,53,0.00,,,0.00,WUHU216HW,2013-05-08 06:29:00,
2013-05-08 02:34:00,43.4,24.9,30.04,NNW,338,0.0,0.4,48,0.00,,,0.00,WUHU216HW,2013-05-08 06:34:00,
2013-05-08 02:39:00,43.4,27.8,30.04,NNW,338,0.0,0.2,54,0.00,,,0.00,WUHU216HW,2013-05-08 06:39:00,
2013-05-08 02:44:00,43.2,29.3,30.04,NNW,338,0.0,0.0,58,0.00,,,0.00,WUHU216HW,2013-05-08 06:44:00,
2013-05-08 02:49:00,43.2,29.3,30.04,NNW,338,0.0,0.0,58,0.00,,,0.00,WUHU216HW,2013-05-08 06:49:00,
2013-05-08 02:54:00,42.8,25.6,30.04,NNW,338,0.0,0.4,50,0.00,,,0.00,WUHU216HW,2013-05-08 06:54:00,
2013-05-08 02:59:00,43.0,27.5,30.05,NNW,338,0.0,0.4,54,0.00,,,0.00,WUHU216HW,2013-05-08 06:59:00,
2013-05-08 03:04:00,43.0,28.4,30.05,NNW,338,0.0,0.0,56,0.00,,,0.00,WUHU216HW,2013-05-08 07:04:00,
2013-05-08 03:10:00,42.8,28.2,30.05,NNW,338,0.0,0.0,56,0.00,,,0.00,WUHU216HW,2013-05-08 07:10:00,
2013-05-08 03:15:00,42.3,24.5,30.05,NNW,338,0.4,1.1,49,0.00,,,0.00,WUHU216HW,2013-05-08 07:15:00,
2013-05-08 03:20:00,42.3,26.4,30.05,NNW,338,0.0,1.1,53,0.00,,,0.00,WUHU216HW,2013-05-08 07:20:00,
2013-05-08 03:25:00,42.3,25.9,30.05,NNW,338,0.0,0.4,52,0.00,,,0.00,WUHU216HW,2013-05-08 07:25:00,
2013-05-08 03:30:00,42.3,24.5,30.05,NNW,338,0.0,0.0,49,0.00,,,0.00,WUHU216HW,2013-05-08 07:30:00,
2013-05-08 03:35:00,42.3,24.5,30.05,NNW,338,0.0,0.0,49,0.00,,,0.00,WUHU216HW,2013-05-08 07:35:00,
2013-05-08 03:40:00,42.1,22.1,30.05,NNW,338,0.7,0.7,45,0.00,,,0.00,WUHU216HW,2013-05-08 07:40:00,
2013-05-08 03:45:00,42.1,20.1,30.05,NNW,338,0.9,0.9,41,0.00,,,0.00,WUHU216HW,2013-05-08 07:45:00,
2013-05-08 03:51:00,42.1,20.6,30.05,NNW,338,0.0,0.9,42,0.00,,,0.00,WUHU216HW,2013-05-08 07:51:00,
2013-05-08 03:56:00,42.1,24.3,30.05,NNW,338,0.0,0.9,49,0.00,,,0.00,WUHU216HW,2013-05-08 07:56:00,
2013-05-08 04:02:00,41.9,25.6,30.05,NNW,338,0.0,0.7,52,0.00,,,0.00,WUHU216HW,2013-05-08 08:02:00,
2013-05-08 04:07:00,41.6,26.1,30.05,NNW,338,0.0,0.7,54,0.00,,,0.00,WUHU216HW,2013-05-08 08:07:00,
2013-05-08 04:12:00,41.4,24.1,30.05,NNW,338,0.0,0.2,50,0.00,,,0.00,WUHU216HW,2013-05-08 08:12:00,
2013-05-08 04:17:00,41.0,15.9,30.05,NNW,338,0.7,0.9,36,0.00,,,0.00,WUHU216HW,2013-05-08 08:17:00,
2013-05-08 04:22:00,41.0,16.6,30.06,NNW,338,0.0,0.9,37,0.00,,,0.00,WUHU216HW,2013-05-08 08:22:00,
2013-05-08 04:27:00,41.2,20.8,30.06,NNW,338,0.0,0.7,44,0.00,,,0.00,WUHU216HW,2013-05-08 08:27:00,
2013-05-08 04:32:00,41.0,22.7,30.05,NNW,338,0.0,0.0,48,0.00,,,0.00,WUHU216HW,2013-05-08 08:32:00,
2013-05-08 04:37:00,41.0,23.8,30.05,NNW,338,0.4,0.4,50,0.00,,,0.00,WUHU216HW,2013-05-08 08:37:00,
2013-05-08 04:42:00,40.9,24.5,30.06,NNW,338,0.0,0.4,52,0.00,,,0.00,WUHU216HW,2013-05-08 08:42:00,
2013-05-08 04:47:00,40.7,24.3,30.06,NNW,338,0.0,0.4,52,0.00,,,0.00,WUHU216HW,2013-05-08 08:47:00,
2013-05-08 04:53:00,40.7,24.3,30.06,NNW,338,0.0,0.0,52,0.00,,,0.00,WUHU216HW,2013-05-08 08:53:00,
2013-05-08 04:58:00,40.5,24.6,30.06,NNW,338,0.0,0.0,53,0.00,,,0.00,WUHU216HW,2013-05-08 08:58:00,
2013-05-08 05:03:00,40.3,24.8,30.06,NNW,338,0.0,0.0,54,0.00,,,0.00,WUHU216HW,2013-05-08 09:03:00,
2013-05-08 05:09:00,40.3,23.6,30.06,NNW,338,0.0,0.0,51,0.00,,,0.00,WUHU216HW,2013-05-08 09:09:00,
2013-05-08 05:14:00,40.3,24.0,30.06,NNW,338,0.0,0.0,52,0.00,,,0.00,WUHU216HW,2013-05-08 09:14:00,
2013-05-08 05:19:00,40.1,24.8,30.06,NNW,338,0.0,0.0,54,0.00,,,0.00,WUHU216HW,2013-05-08 09:19:00,
2013-05-08 05:24:00,40.0,24.6,30.06,NNW,338,0.0,0.0,54,0.00,,,0.00,WUHU216HW,2013-05-08 09:24:00,
2013-05-08 05:29:00,40.0,23.2,30.06,NNW,338,0.0,0.0,51,0.00,,,0.00,WUHU216HW,2013-05-08 09:29:00,
2013-05-08 05:34:00,40.1,23.9,30.06,NNW,338,0.0,0.0,52,0.00,,,0.00,WUHU216HW,2013-05-08 09:34:00,
2013-05-08 05:39:00,40.1,23.4,30.07,NNW,338,0.0,0.0,51,0.00,,,0.00,WUHU216HW,2013-05-08 09:39:00,
2013-05-08 05:44:00,40.1,23.9,30.07,NNW,338,0.0,0.0,52,0.00,,,0.00,WUHU216HW,2013-05-08 09:44:00,
2013-05-08 05:49:00,40.1,23.9,30.07,NNW,338,0.0,0.0,52,0.00,,,0.00,WUHU216HW,2013-05-08 09:49:00,
2013-05-08 05:54:00,40.1,23.9,30.07,NNW,338,0.0,0.0,52,0.00,,,0.00,WUHU216HW,2013-05-08 09:54:00,
2013-05-08 05:59:00,40.1,23.9,30.08,NNW,338,0.0,0.0,52,0.00,,,0.00,WUHU216HW,2013-05-08 09:59:00,
2013-05-08 06:05:00,40.1,23.4,30.08,NNW,338,0.0,0.0,51,0.00,,,0.00,WUHU216HW,2013-05-08 10:05:00,
2013-05-08 06:10:00,40.3,22.6,30.08,NNW,338,0.0,0.0,49,0.00,,,0.00,WUHU216HW,2013-05-08 10:10:00,
2013-05-08 06:15:00,40.5,22.8,30.08,NNW,338,0.0,0.0,49,0.00,,,0.00,WUHU216HW,2013-05-08 10:15:00,
2013-05-08 06:20:00,40.5,22.8,30.08,NNW,338,0.0,0.0,49,0.00,,,0.00,WUHU216HW,2013-05-08 10:20:00,
2013-05-08 06:25:00,40.9,19.5,30.08,NNW,338,0.0,0.0,42,0.00,,,0.00,WUHU216HW,2013-05-08 10:25:00,
2013-05-08 06:30:00,41.9,10.1,30.08,NNW,338,0.0,0.0,27,0.00,,,0.00,WUHU216HW,2013-05-08 10:30:00,
2013-05-08 06:35:00,44.3,13.0,30.09,NNW,338,0.0,0.4,28,0.00,,,0.00,WUHU216HW,2013-05-08 10:35:00,
2013-05-08 06:40:00,46.6,20.3,30.09,NNW,338,0.0,0.4,35,0.00,,,0.00,WUHU216HW,2013-05-08 10:40:00,
2013-05-08 06:45:00,49.3,29.9,30.09,East,90,0.4,0.7,47,0.00,,,0.00,WUHU216HW,2013-05-08 10:45:00,
2013-05-08 06:50:00,51.8,39.6,30.09,SE,135,0.7,1.1,63,0.00,,,0.00,WUHU216HW,2013-05-08 10:50:00,
2013-05-08 06:55:00,51.3,41.1,30.09,ESE,113,0.7,1.1,68,0.00,,,0.00,WUHU216HW,2013-05-08 10:55:00,
2013-05-08 07:00:00,50.0,39.9,30.09,ESE,113,0.4,0.9,68,0.00,,,0.00,WUHU216HW,2013-05-08 11:00:00,
2013-05-08 07:05:00,49.1,39.0,30.09,East,90,0.0,0.7,68,0.00,,,0.00,WUHU216HW,2013-05-08 11:05:00,
2013-05-08 07:10:00,48.8,38.3,30.09,East,90,0.4,0.7,67,0.00,,,0.00,WUHU216HW,2013-05-08 11:10:00,
2013-05-08 07:15:00,48.8,37.9,30.09,East,90,0.0,0.7,66,0.00,,,0.00,WUHU216HW,2013-05-08 11:15:00,
2013-05-08 07:20:00,49.1,37.4,30.09,ESE,113,0.9,0.9,64,0.00,,,0.00,WUHU216HW,2013-05-08 11:20:00,
2013-05-08 07:25:00,49.7,38.0,30.09,ESE,113,0.0,0.9,64,0.00,,,0.00,WUHU216HW,2013-05-08 11:25:00,
2013-05-08 07:30:00,50.2,38.1,30.09,North,0,0.0,0.9,63,0.00,,,0.00,WUHU216HW,2013-05-08 11:30:00,
2013-05-08 07:35:00,51.1,39.3,30.09,North,0,0.0,0.4,64,0.00,,,0.00,WUHU216HW,2013-05-08 11:35:00,
2013-05-08 07:40:00,52.2,40.3,30.09,NNE,23,0.0,0.9,64,0.00,,,0.00,WUHU216HW,2013-05-08 11:40:00,
2013-05-08 07:45:00,52.9,41.9,30.09,East,90,0.7,1.8,66,0.00,,,0.00,WUHU216HW,2013-05-08 11:45:00,
2013-05-08 07:50:00,53.6,42.9,30.09,ESE,113,1.1,1.8,67,0.00,,,0.00,WUHU216HW,2013-05-08 11:50:00,
2013-05-08 07:55:00,54.2,43.8,30.09,ESE,113,0.2,1.8,68,0.00,,,0.00,WUHU216HW,2013-05-08 11:55:00,
2013-05-08 08:00:00,54.9,44.6,30.09,SE,135,0.9,2.2,68,0.00,,,0.00,WUHU216HW,2013-05-08 12:00:00,
2013-05-08 08:05:00,55.4,45.1,30.09,SE,135,1.1,2.2,68,0.00,,,0.00,WUHU216HW,2013-05-08 12:05:00,
2013-05-08 08:10:00,56.2,45.7,30.09,SE,135,1.1,2.7,68,0.00,,,0.00,WUHU216HW,2013-05-08 12:10:00,
2013-05-08 08:15:00,57.1,46.5,30.09,SE,135,1.6,2.7,68,0.00,,,0.00,WUHU216HW,2013-05-08 12:15:00,
2013-05-08 08:20:00,58.0,47.4,30.10,ESE,113,2.0,2.7,68,0.00,,,0.00,WUHU216HW,2013-05-08 12:20:00,
2013-05-08 08:26:00,58.7,48.2,30.09,SE,135,2.5,2.7,68,0.00,,,0.00,WUHU216HW,2013-05-08 12:26:00,
2013-05-08 08:31:00,58.9,48.3,30.09,SSE,158,0.7,2.7,68,0.00,,,0.00,WUHU216HW,2013-05-08 12:31:00,
2013-05-08 08:36:00,59.0,48.5,30.09,SSE,158,0.2,2.7,68,0.00,,,0.00,WUHU216HW,2013-05-08 12:36:00,
2013-05-08 08:41:00,59.6,49.1,30.09,ESE,113,1.8,2.7,68,0.00,,,0.00,WUHU216HW,2013-05-08 12:41:00,
2013-05-08 08:46:00,60.3,49.3,30.09,SE,135,0.0,1.8,67,0.00,,,0.00,WUHU216HW,2013-05-08 12:46:00,
2013-05-08 08:51:00,61.2,50.6,30.09,SE,135,0.2,1.3,68,0.00,,,0.00,WUHU216HW,2013-05-08 12:51:00,
2013-05-08 08:56:00,61.2,50.2,30.09,NNE,23,0.2,1.3,67,0.00,,,0.00,WUHU216HW,2013-05-08 12:56:00,
2013-05-08 09:01:00,61.6,50.5,30.09,SSE,158,1.1,1.1,67,0.00,,,0.00,WUHU216HW,2013-05-08 13:01:00,
2013-05-08 09:06:00,62.6,51.5,30.09,SE,135,1.1,2.2,67,0.00,,,0.00,WUHU216HW,2013-05-08 13:06:00,
2013-05-08 09:11:00,63.2,51.6,30.09,East,90,0.4,2.2,66,0.00,,,0.00,WUHU216HW,2013-05-08 13:11:00,
2013-05-08 09:16:00,63.9,52.8,30.08,SE,135,0.9,1.8,67,0.00,,,0.00,WUHU216HW,2013-05-08 13:16:00,
2013-05-08 09:21:00,64.8,52.8,30.08,ESE,113,1.8,1.8,65,0.00,,,0.00,WUHU216HW,2013-05-08 13:21:00,
2013-05-08 09:26:00,65.5,53.8,30.08,South,180,0.9,1.8,66,0.00,,,0.00,WUHU216HW,2013-05-08 13:26:00,
2013-05-08 09:31:00,66.2,54.1,30.08,ESE,113,2.5,2.5,65,0.00,,,0.00,WUHU216HW,2013-05-08 13:31:00,
2013-05-08 09:36:00,66.8,54.6,30.08,SE,135,1.8,2.5,65,0.00,,,0.00,WUHU216HW,2013-05-08 13:36:00,
2013-05-08 09:41:00,67.3,55.1,30.07,SSW,203,0.7,2.5,65,0.00,,,0.00,WUHU216HW,2013-05-08 13:41:00,
2013-05-08 09:46:00,68.2,56.0,30.07,ESE,113,2.5,2.5,65,0.00,,,0.00,WUHU216HW,2013-05-08 13:46:00,
2013-05-08 09:51:00,69.3,56.6,30.07,NNE,23,0.9,2.5,64,0.00,,,0.00,WUHU216HW,2013-05-08 13:51:00,
2013-05-08 09:56:00,69.8,57.1,30.07,SE,135,2.7,3.6,64,0.00,,,0.00,WUHU216HW,2013-05-08 13:56:00,
2013-05-08 10:01:00,70.4,57.6,30.07,ESE,113,1.1,5.1,64,0.00,,,0.00,WUHU216HW,2013-05-08 14:01:00,
2013-05-08 10:06:00,71.3,58.4,30.06,SE,135,1.1,5.1,64,0.00,,,0.00,WUHU216HW,2013-05-08 14:06:00,
2013-05-08 10:11:00,71.8,58.1,30.06,SE,135,1.8,6.3,62,0.00,,,0.00,WUHU216HW,2013-05-08 14:11:00,
2013-05-08 10:16:00,72.0,58.7,30.06,SSE,158,4.3,6.3,63,0.00,,,0.00,WUHU216HW,2013-05-08 14:16:00,
2013-05-08 10:21:00,72.0,58.2,30.06,SE,135,2.5,5.4,62,0.00,,,0.00,WUHU216HW,2013-05-08 14:21:00,
2013-05-08 10:26:00,71.8,58.1,30.06,SE,135,4.3,5.4,62,0.00,,,0.00,WUHU216HW,2013-05-08 14:26:00,
2013-05-08 10:31:00,72.4,59.1,30.06,ESE,113,6.9,6.9,63,0.00,,,0.00,WUHU216HW,2013-05-08 14:31:00,
2013-05-08 10:36:00,73.3,59.4,30.06,ESE,113,6.3,6.9,62,0.00,,,0.00,WUHU216HW,2013-05-08 14:36:00,
2013-05-08 10:41:00,73.8,59.5,30.05,SSE,158,4.0,6.9,61,0.00,,,0.00,WUHU216HW,2013-05-08 14:41:00,
2013-05-08 10:46:00,74.2,58.9,30.06,SE,135,5.8,7.2,59,0.00,,,0.00,WUHU216HW,2013-05-08 14:46:00,
2013-05-08 10:51:00,74.3,58.6,30.06,SSE,158,4.3,7.6,58,0.00,,,0.00,WUHU216HW,2013-05-08 14:51:00,
2013-05-08 10:56:00,74.5,58.8,30.05,East,90,0.4,7.6,58,0.00,,,0.00,WUHU216HW,2013-05-08 14:56:00,
2013-05-08 11:01:00,74.3,58.6,30.05,SE,135,2.7,6.3,58,0.00,,,0.00,WUHU216HW,2013-05-08 15:01:00,
2013-05-08 11:06:00,74.2,57.9,30.05,SSE,158,4.5,6.3,57,0.00,,,0.00,WUHU216HW,2013-05-08 15:06:00,
2013-05-08 11:11:00,74.2,58.4,30.05,SE,135,4.5,6.3,58,0.00,,,0.00,WUHU216HW,2013-05-08 15:11:00,
2013-05-08 11:16:00,74.7,57.4,30.04,SSE,158,3.4,6.9,55,0.00,,,0.00,WUHU216HW,2013-05-08 15:16:00,
2013-05-08 11:21:00,75.2,59.0,30.04,South,180,1.8,6.9,57,0.00,,,0.00,WUHU216HW,2013-05-08 15:21:00,
2013-05-08 11:26:00,76.1,56.8,30.04,ESE,113,2.7,6.3,51,0.00,,,0.00,WUHU216HW,2013-05-08 15:26:00,
2013-05-08 11:32:00,76.7,58.2,30.05,ENE,68,4.0,5.1,53,0.00,,,0.00,WUHU216HW,2013-05-08 15:32:00,
2013-05-08 11:37:00,76.7,58.2,30.04,SE,135,2.7,8.3,53,0.00,,,0.00,WUHU216HW,2013-05-08 15:37:00,
2013-05-08 11:42:00,75.8,57.0,30.04,SE,135,5.4,8.5,52,0.00,,,0.00,WUHU216HW,2013-05-08 15:42:00,
2013-05-08 11:47:00,76.0,56.1,30.04,SSE,158,6.3,11.2,50,0.00,,,0.00,WUHU216HW,2013-05-08 15:47:00,
2013-05-08 11:52:00,76.5,57.6,30.04,South,180,2.9,11.2,52,0.00,,,0.00,WUHU216HW,2013-05-08 15:52:00,
2013-05-08 11:57:00,76.7,57.8,30.03,SSE,158,5.4,8.1,52,0.00,,,0.00,WUHU216HW,2013-05-08 15:57:00,
2013-05-08 12:02:00,77.0,57.1,30.03,ESE,113,3.6,8.1,50,0.00,,,0.00,WUHU216HW,2013-05-08 16:02:00,
2013-05-08 12:07:00,77.4,57.9,30.03,SSE,158,4.7,7.6,51,0.00,,,0.00,WUHU216HW,2013-05-08 16:07:00,
2013-05-08 12:12:00,77.9,58.4,30.03,SE,135,2.5,5.4,51,0.00,,,0.00,WUHU216HW,2013-05-08 16:12:00,
2013-05-08 12:17:00,77.2,56.6,30.03,SE,135,4.7,8.3,49,0.00,,,0.00,WUHU216HW,2013-05-08 16:17:00,
2013-05-08 12:22:00,76.7,56.7,30.03,SE,135,5.1,8.3,50,0.00,,,0.00,WUHU216HW,2013-05-08 16:22:00,
2013-05-08 12:27:00,75.8,55.4,30.03,SSW,203,3.4,8.3,49,0.00,,,0.00,WUHU216HW,2013-05-08 16:27:00,
2013-05-08 12:32:00,74.9,55.6,30.03,SSE,158,3.6,9.2,51,0.00,,,0.00,WUHU216HW,2013-05-08 16:32:00,
2013-05-08 12:37:00,74.3,55.1,30.03,SSE,158,5.4,9.2,51,0.00,,,0.00,WUHU216HW,2013-05-08 16:37:00,
2013-05-08 12:42:00,73.8,55.0,30.02,SE,135,5.1,5.4,52,0.00,,,0.00,WUHU216HW,2013-05-08 16:42:00,
2013-05-08 12:47:00,73.4,54.6,30.03,SSW,203,4.7,5.1,52,0.00,,,0.00,WUHU216HW,2013-05-08 16:47:00,
2013-05-08 12:52:00,72.7,54.6,30.03,SSE,158,3.6,9.2,53,0.00,,,0.00,WUHU216HW,2013-05-08 16:52:00,
2013-05-08 12:57:00,72.7,54.6,30.03,SSW,203,4.7,9.2,53,0.00,,,0.00,WUHU216HW,2013-05-08 16:57:00,
2013-05-08 13:02:00,72.4,54.2,30.03,SE,135,6.3,7.2,53,0.00,,,0.00,WUHU216HW,2013-05-08 17:02:00,
2013-05-08 13:07:00,72.2,55.0,30.03,ESE,113,2.9,7.2,55,0.00,,,0.00,WUHU216HW,2013-05-08 17:07:00,
2013-05-08 13:12:00,72.2,56.1,30.04,South,180,6.7,6.7,57,0.00,,,0.00,WUHU216HW,2013-05-08 17:12:00,
2013-05-08 13:17:00,72.0,56.9,30.04,SE,135,0.9,6.7,59,0.00,,,0.00,WUHU216HW,2013-05-08 17:17:00,
2013-05-08 13:22:00,72.4,58.1,30.04,ESE,113,4.0,6.7,61,0.00,,,0.00,WUHU216HW,2013-05-08 17:22:00,
2013-05-08 13:28:00,72.5,57.9,30.04,South,180,1.8,6.5,60,0.00,,,0.00,WUHU216HW,2013-05-08 17:28:00,
2013-05-08 13:33:00,73.1,57.9,30.04,SE,135,4.0,7.4,59,0.00,,,0.00,WUHU216HW,2013-05-08 17:33:00,
2013-05-08 13:38:00,74.2,59.4,30.03,ESE,113,2.5,7.4,60,0.00,,,0.00,WUHU216HW,2013-05-08 17:38:00,
2013-05-08 13:43:00,75.4,58.2,30.03,SE,135,10.5,10.5,55,0.00,,,0.00,WUHU216HW,2013-05-08 17:43:00,
2013-05-08 13:48:00,76.3,59.9,30.03,South,180,4.7,10.5,57,0.00,,,0.00,WUHU216HW,2013-05-08 17:48:00,
2013-05-08 13:53:00,76.7,59.8,30.03,East,90,2.5,10.5,56,0.00,,,0.00,WUHU216HW,2013-05-08 17:53:00,
2013-05-08 13:58:00,76.7,59.2,30.03,South,180,4.7,7.6,55,0.00,,,0.00,WUHU216HW,2013-05-08 17:58:00,
2013-05-08 14:03:00,77.6,59.6,30.03,ESE,113,5.1,7.6,54,0.00,,,0.00,WUHU216HW,2013-05-08 18:03:00,
2013-05-08 14:08:00,77.8,59.8,30.02,SSE,158,3.4,5.4,54,0.00,,,0.00,WUHU216HW,2013-05-08 18:08:00,
2013-05-08 14:13:00,78.1,60.1,30.02,ESE,113,2.5,5.4,54,0.00,,,0.00,WUHU216HW,2013-05-08 18:13:00,
2013-05-08 14:18:00,78.1,59.6,30.02,ESE,113,3.4,4.0,53,0.00,,,0.00,WUHU216HW,2013-05-08 18:18:00,
2013-05-08 14:23:00,77.8,58.2,30.01,SE,135,6.0,6.0,51,0.00,,,0.00,WUHU216HW,2013-05-08 18:23:00,
2013-05-08 14:28:00,77.4,58.4,30.01,SSE,158,4.0,6.0,52,0.00,,,0.00,WUHU216HW,2013-05-08 18:28:00,
2013-05-08 14:33:00,77.0,58.6,30.01,SSE,158,6.0,6.0,53,0.00,,,0.00,WUHU216HW,2013-05-08 18:33:00,
2013-05-08 14:38:00,76.7,58.2,30.01,SE,135,4.7,6.9,53,0.00,,,0.00,WUHU216HW,2013-05-08 18:38:00,
2013-05-08 14:43:00,76.0,58.2,30.01,SE,135,2.7,8.5,54,0.00,,,0.00,WUHU216HW,2013-05-08 18:43:00,
2013-05-08 14:48:00,75.4,58.2,30.00,SSW,203,2.5,8.5,55,0.00,,,0.00,WUHU216HW,2013-05-08 18:48:00,
2013-05-08 14:53:00,75.1,58.3,30.00,SSE,158,4.3,6.3,56,0.00,,,0.00,WUHU216HW,2013-05-08 18:53:00,
2013-05-08 14:58:00,74.3,57.6,30.00,SE,135,2.0,6.3,56,0.00,,,0.00,WUHU216HW,2013-05-08 18:58:00,
2013-05-08 15:03:00,74.2,57.9,30.00,SE,135,4.5,8.5,57,0.00,,,0.00,WUHU216HW,2013-05-08 19:03:00,
2013-05-08 15:08:00,74.9,58.6,29.99,SSE,158,5.4,8.5,57,0.00,,,0.00,WUHU216HW,2013-05-08 19:08:00,
2013-05-08 15:13:00,74.5,57.8,29.99,SSE,158,3.6,6.9,56,0.00,,,0.00,WUHU216HW,2013-05-08 19:13:00,
2013-05-08 15:18:00,73.4,57.2,29.99,SE,135,2.0,8.3,57,0.00,,,0.00,WUHU216HW,2013-05-08 19:18:00,
2013-05-08 15:23:00,72.7,57.1,30.00,SSE,158,7.6,8.3,58,0.00,,,0.00,WUHU216HW,2013-05-08 19:23:00,
2013-05-08 15:28:00,70.7,57.5,30.01,SE,135,4.0,10.7,63,0.12,,,0.12,WUHU216HW,2013-05-08 19:28:00,
2013-05-08 15:33:00,67.3,55.1,30.02,WSW,248,0.2,10.7,65,0.15,,,0.15,WUHU216HW,2013-05-08 19:33:00,
2013-05-08 15:38:00,66.6,55.3,30.01,South,180,0.2,4.0,67,0.15,,,0.15,WUHU216HW,2013-05-08 19:38:00,
2013-05-08 15:43:00,66.6,55.3,30.01,WSW,248,0.4,1.6,67,0.15,,,0.15,WUHU216HW,2013-05-08 19:43:00,
2013-05-08 15:48:00,67.0,55.6,30.01,WSW,248,0.2,1.6,67,0.15,,,0.15,WUHU216HW,2013-05-08 19:48:00,
2013-05-08 15:53:00,68.0,56.3,30.01,ESE,113,1.1,1.1,66,0.15,,,0.15,WUHU216HW,2013-05-08 19:53:00,
2013-05-08 15:58:00,68.8,56.5,30.01,West,270,0.0,1.8,65,0.16,,,0.16,WUHU216HW,2013-05-08 19:58:00,
2013-05-08 16:04:00,69.1,57.2,30.00,WSW,248,1.3,1.8,66,0.16,,,0.16,WUHU216HW,2013-05-08 20:04:00,
2013-05-08 16:09:00,69.5,57.2,30.00,SE,135,1.6,1.6,65,0.16,,,0.16,WUHU216HW,2013-05-08 20:09:00,
2013-05-08 16:14:00,69.5,57.6,30.00,ESE,113,0.7,1.6,66,0.16,,,0.16,WUHU216HW,2013-05-08 20:14:00,
2013-05-08 16:19:00,68.8,56.5,30.01,SSE,158,3.4,3.4,65,0.16,,,0.16,WUHU216HW,2013-05-08 20:19:00,
2013-05-08 16:24:00,68.0,56.3,30.00,SW,225,1.8,3.4,66,0.08,,,0.16,WUHU216HW,2013-05-08 20:24:00,
2013-05-08 16:29:00,67.7,55.9,30.00,East,90,0.7,3.4,66,0.02,,,0.16,WUHU216HW,2013-05-08 20:29:00,
2013-05-08 16:34:00,67.3,55.5,30.00,SW,225,0.4,1.8,66,0.01,,,0.16,WUHU216HW,2013-05-08 20:34:00,
2013-05-08 16:39:00,67.1,54.9,30.00,WSW,248,0.7,1.3,65,0.01,,,0.16,WUHU216HW,2013-05-08 20:39:00,
2013-05-08 16:44:00,67.1,54.1,30.00,SE,135,1.1,2.0,63,0.01,,,0.16,WUHU216HW,2013-05-08 20:44:00,
2013-05-08 16:49:00,67.5,54.0,30.00,SW,225,0.0,2.0,62,0.01,,,0.16,WUHU216HW,2013-05-08 20:49:00,
2013-05-08 16:54:00,67.7,53.3,30.00,WSW,248,1.1,1.1,60,0.01,,,0.16,WUHU216HW,2013-05-08 20:54:00,
2013-05-08 16:59:00,68.0,54.6,30.00,WSW,248,0.4,1.8,62,0.00,,,0.16,WUHU216HW,2013-05-08 20:59:00,
2013-05-08 17:04:00,68.0,54.1,29.99,WSW,248,0.7,1.8,61,0.00,,,0.16,WUHU216HW,2013-05-08 21:04:00,
2013-05-08 17:09:00,68.2,54.7,30.00,WSW,248,0.4,1.1,62,0.00,,,0.16,WUHU216HW,2013-05-08 21:09:00,
2013-05-08 17:14:00,68.4,54.9,29.99,WSW,248,0.7,1.1,62,0.00,,,0.16,WUHU216HW,2013-05-08 21:14:00,
2013-05-08 17:19:00,68.6,55.0,29.99,WSW,248,0.4,1.1,62,0.00,,,0.16,WUHU216HW,2013-05-08 21:19:00,
2013-05-08 17:24:00,68.4,55.3,29.99,WSW,248,0.0,1.1,63,0.00,,,0.16,WUHU216HW,2013-05-08 21:24:00,
2013-05-08 17:29:00,68.4,54.9,29.99,WSW,248,1.1,1.1,62,0.00,,,0.16,WUHU216HW,2013-05-08 21:29:00,
2013-05-08 17:34:00,68.0,54.9,29.98,WSW,248,0.9,1.1,63,0.00,,,0.16,WUHU216HW,2013-05-08 21:34:00,
2013-05-08 17:39:00,67.9,54.4,29.98,WSW,248,0.4,1.1,62,0.00,,,0.16,WUHU216HW,2013-05-08 21:39:00,
2013-05-08 17:44:00,67.7,53.7,29.98,WSW,248,1.1,1.1,61,0.00,,,0.16,WUHU216HW,2013-05-08 21:44:00,
2013-05-08 17:49:00,67.7,54.2,29.98,WSW,248,0.7,1.1,62,0.00,,,0.16,WUHU216HW,2013-05-08 21:49:00,
2013-05-08 17:54:00,67.1,53.3,29.98,WSW,248,0.7,1.3,61,0.00,,,0.16,WUHU216HW,2013-05-08 21:54:00,
2013-05-08 17:59:00,66.6,52.7,29.98,WSW,248,0.2,1.3,61,0.00,,,0.16,WUHU216HW,2013-05-08 21:59:00,
2013-05-08 18:04:00,66.4,52.6,29.98,WSW,248,0.4,1.3,61,0.00,,,0.16,WUHU216HW,2013-05-08 22:04:00,
2013-05-08 18:09:00,66.1,52.3,29.98,SW,225,0.2,1.1,61,0.00,,,0.16,WUHU216HW,2013-05-08 22:09:00,
2013-05-08 18:14:00,65.9,51.2,29.98,WSW,248,0.4,1.1,59,0.00,,,0.16,WUHU216HW,2013-05-08 22:14:00,
2013-05-08 18:19:00,65.5,50.9,29.98,North,0,0.7,1.1,59,0.00,,,0.16,WUHU216HW,2013-05-08 22:19:00,
2013-05-08 18:24:00,65.3,48.7,29.98,SE,135,0.9,3.6,55,0.00,,,0.16,WUHU216HW,2013-05-08 22:24:00,
2013-05-08 18:29:00,65.0,45.9,29.98,ESE,113,0.2,3.6,50,0.00,,,0.16,WUHU216HW,2013-05-08 22:29:00,
2013-05-08 18:34:00,64.6,46.0,29.99,SSE,158,0.4,2.2,51,0.01,,,0.17,WUHU216HW,2013-05-08 22:34:00,
2013-05-08 18:39:00,64.4,46.8,29.99,SSW,203,2.5,2.5,53,0.06,,,0.22,WUHU216HW,2013-05-08 22:39:00,
2013-05-08 18:44:00,64.1,45.6,29.99,SSE,158,2.0,5.4,51,0.07,,,0.23,WUHU216HW,2013-05-08 22:44:00,
2013-05-08 18:49:00,63.7,41.2,29.99,SE,135,1.3,5.4,44,0.07,,,0.23,WUHU216HW,2013-05-08 22:49:00,
2013-05-08 18:54:00,63.5,42.9,29.99,North,0,1.1,4.7,47,0.08,,,0.24,WUHU216HW,2013-05-08 22:54:00,
2013-05-08 18:59:00,63.5,45.6,29.99,SSW,203,0.0,4.0,52,0.08,,,0.24,WUHU216HW,2013-05-08 22:59:00,
2013-05-08 19:04:00,63.4,44.9,29.99,WSW,248,0.0,1.8,51,0.08,,,0.24,WUHU216HW,2013-05-08 23:04:00,
2013-05-08 19:09:00,63.2,44.7,29.99,WSW,248,0.0,1.1,51,0.08,,,0.24,WUHU216HW,2013-05-08 23:09:00,
2013-05-08 19:14:00,63.0,44.6,29.99,West,270,0.4,1.1,51,0.08,,,0.24,WUHU216HW,2013-05-08 23:14:00,
2013-05-08 19:19:00,62.8,43.3,29.99,WSW,248,0.2,2.0,49,0.08,,,0.24,WUHU216HW,2013-05-08 23:19:00,
2013-05-08 19:24:00,62.6,43.2,29.99,SW,225,0.7,3.8,49,0.08,,,0.24,WUHU216HW,2013-05-08 23:24:00,
2013-05-08 19:29:00,62.6,42.6,29.99,WSW,248,0.7,3.8,48,0.07,,,0.24,WUHU216HW,2013-05-08 23:29:00,
2013-05-08 19:34:00,62.3,42.3,29.99,WSW,248,0.0,1.6,48,0.03,,,0.24,WUHU216HW,2013-05-08 23:34:00,
2013-05-08 19:40:00,62.1,41.0,29.99,WSW,248,0.4,1.1,46,0.03,,,0.25,WUHU216HW,2013-05-08 23:40:00,
2013-05-08 19:45:00,61.9,41.9,29.99,SW,225,0.4,2.5,48,0.02,,,0.25,WUHU216HW,2013-05-08 23:45:00,
2013-05-08 19:50:00,61.9,40.8,29.98,West,270,0.4,2.5,46,0.02,,,0.25,WUHU216HW,2013-05-08 23:50:00,
2013-05-08 19:55:00,61.6,41.0,29.98,WNW,293,0.4,1.6,47,0.01,,,0.25,WUHU216HW,2013-05-08 23:55:00,
2013-05-08 20:00:00,61.4,38.6,29.98,NW,315,0.0,1.3,43,0.01,,,0.25,WUHU216HW,2013-05-09 00:00:00,
2013-05-08 20:05:00,61.0,38.8,29.98,NW,315,0.9,1.3,44,0.01,,,0.25,WUHU216HW,2013-05-09 00:05:00,
2013-05-08 20:10:00,60.8,35.6,29.98,West,270,0.2,2.0,39,0.01,,,0.25,WUHU216HW,2013-05-09 00:10:00,
2013-05-08 20:15:00,60.7,36.2,29.98,SW,225,0.0,2.0,40,0.01,,,0.25,WUHU216HW,2013-05-09 00:15:00,
2013-05-08 20:20:00,60.7,36.8,29.98,SW,225,0.0,1.8,41,0.01,,,0.25,WUHU216HW,2013-05-09 00:20:00,
2013-05-08 20:25:00,60.5,37.2,29.98,West,270,0.0,0.7,42,0.01,,,0.25,WUHU216HW,2013-05-09 00:25:00,
2013-05-08 20:30:00,60.5,37.8,29.98,West,270,0.0,0.4,43,0.01,,,0.25,WUHU216HW,2013-05-09 00:30:00,
2013-05-08 20:35:00,60.3,36.5,29.98,West,270,0.0,0.0,41,0.01,,,0.25,WUHU216HW,2013-05-09 00:35:00,
2013-05-08 20:40:00,60.3,34.5,29.98,WNW,293,1.1,1.1,38,0.00,,,0.25,WUHU216HW,2013-05-09 00:40:00,
2013-05-08 20:45:00,60.1,31.4,29.98,West,270,0.4,1.3,34,0.00,,,0.25,WUHU216HW,2013-05-09 00:45:00,
2013-05-08 20:50:00,60.1,31.4,29.98,NE,45,0.4,1.3,34,0.00,,,0.25,WUHU216HW,2013-05-09 00:50:00,
2013-05-08 20:55:00,60.1,32.9,29.98,NW,315,0.0,1.1,36,0.00,,,0.25,WUHU216HW,2013-05-09 00:55:00,
2013-05-08 21:00:00,59.9,29.9,29.98,NW,315,0.0,0.4,32,0.00,,,0.25,WUHU216HW,2013-05-09 01:00:00,
2013-05-08 21:05:00,59.8,29.0,29.98,NW,315,0.0,0.7,31,0.00,,,0.25,WUHU216HW,2013-05-09 01:05:00,
2013-05-08 21:10:00,59.8,29.7,29.98,NW,315,0.0,0.7,32,0.00,,,0.25,WUHU216HW,2013-05-09 01:10:00,
2013-05-08 21:15:00,59.8,29.7,29.98,NW,315,1.1,1.1,32,0.00,,,0.25,WUHU216HW,2013-05-09 01:15:00,
2013-05-08 21:20:00,59.8,30.4,29.98,NW,315,0.0,1.1,33,0.00,,,0.25,WUHU216HW,2013-05-09 01:20:00,
2013-05-08 21:25:00,59.6,25.3,29.98,NW,315,0.4,0.7,27,0.00,,,0.25,WUHU216HW,2013-05-09 01:25:00,
2013-05-08 21:30:00,59.4,23.1,29.98,NW,315,0.7,1.6,25,0.00,,,0.25,WUHU216HW,2013-05-09 01:30:00,
2013-05-08 21:35:00,59.6,26.2,29.98,NW,315,0.0,1.6,28,0.00,,,0.25,WUHU216HW,2013-05-09 01:35:00,
2013-05-08 21:40:00,59.6,28.2,29.98,NW,315,0.0,0.7,30,0.00,,,0.25,WUHU216HW,2013-05-09 01:40:00,
2013-05-08 21:45:00,59.4,22.2,29.98,NW,315,1.1,1.1,24,0.00,,,0.25,WUHU216HW,2013-05-09 01:45:00,
2013-05-08 21:50:00,59.4,24.1,29.98,NW,315,0.7,1.1,26,0.01,,,0.26,WUHU216HW,2013-05-09 01:50:00,
2013-05-08 21:55:00,59.6,26.2,29.98,NW,315,0.0,1.1,28,0.02,,,0.27,WUHU216HW,2013-05-09 01:55:00,
2013-05-08 22:00:00,59.6,27.2,29.98,NW,315,0.0,0.7,29,0.02,,,0.27,WUHU216HW,2013-05-09 02:00:00,
2013-05-08 22:05:00,59.6,27.2,29.98,NW,315,0.0,0.4,29,0.02,,,0.27,WUHU216HW,2013-05-09 02:05:00,
2013-05-08 22:10:00,59.6,28.2,29.98,West,270,0.2,0.2,30,0.02,,,0.27,WUHU216HW,2013-05-09 02:10:00,
2013-05-08 22:15:00,59.6,28.2,29.98,West,270,0.7,0.9,30,0.02,,,0.27,WUHU216HW,2013-05-09 02:15:00,
2013-05-08 22:20:00,59.4,23.1,29.98,West,270,0.4,1.3,25,0.03,,,0.28,WUHU216HW,2013-05-09 02:20:00,
2013-05-08 22:25:00,59.2,22.1,29.97,NW,315,0.7,1.3,24,0.03,,,0.28,WUHU216HW,2013-05-09 02:25:00,
2013-05-08 22:30:00,59.2,20.1,29.97,NNW,338,0.2,0.7,22,0.03,,,0.28,WUHU216HW,2013-05-09 02:30:00,
2013-05-08 22:35:00,59.0,18.0,29.97,NNW,338,1.1,1.1,20,0.03,,,0.28,WUHU216HW,2013-05-09 02:35:00,
2013-05-08 22:40:00,59.0,20.9,29.97,NW,315,0.0,1.1,23,0.03,,,0.28,WUHU216HW,2013-05-09 02:40:00,
2013-05-08 22:45:00,59.0,21.9,29.97,NW,315,0.0,1.1,24,0.03,,,0.28,WUHU216HW,2013-05-09 02:45:00,
2013-05-08 22:50:00,59.0,22.9,29.96,NW,315,0.0,0.0,25,0.02,,,0.28,WUHU216HW,2013-05-09 02:50:00,
2013-05-08 22:55:00,59.0,22.9,29.96,NW,315,0.0,0.0,25,0.01,,,0.28,WUHU216HW,2013-05-09 02:55:00,
2013-05-08 23:00:00,58.9,13.2,29.96,NW,315,0.7,0.7,17,0.01,,,0.28,WUHU216HW,2013-05-09 03:00:00,
2013-05-08 23:05:00,58.7,17.7,29.96,NW,315,0.7,0.7,20,0.01,,,0.28,WUHU216HW,2013-05-09 03:05:00,
2013-05-08 23:10:00,58.7,13.1,29.96,NW,315,0.7,0.7,17,0.01,,,0.28,WUHU216HW,2013-05-09 03:10:00,
2013-05-08 23:16:00,58.7,17.7,29.96,NW,315,0.0,0.7,20,0.01,,,0.28,WUHU216HW,2013-05-09 03:16:00,
2013-05-08 23:21:00,58.7,17.7,29.96,NW,315,1.1,1.3,20,0.00,,,0.28,WUHU216HW,2013-05-09 03:21:00,
2013-05-08 23:26:00,58.7,16.2,29.96,WNW,293,0.4,1.3,19,0.00,,,0.28,WUHU216HW,2013-05-09 03:26:00,
2013-05-08 23:31:00,58.7,10.0,29.95,WNW,293,1.1,1.1,15,0.01,,,0.29,WUHU216HW,2013-05-09 03:31:00,
2013-05-08 23:36:00,58.7,11.5,29.95,WNW,293,0.0,1.1,16,0.01,,,0.29,WUHU216HW,2013-05-09 03:36:00,
2013-05-08 23:41:00,58.7,6.8,29.95,WNW,293,0.0,1.1,13,0.01,,,0.29,WUHU216HW,2013-05-09 03:41:00,
2013-05-08 23:46:00,58.7,11.5,29.95,WNW,293,0.0,0.9,16,0.02,,,0.30,WUHU216HW,2013-05-09 03:46:00,
2013-05-08 23:51:00,58.7,11.5,29.95,WNW,293,0.4,1.1,16,0.02,,,0.30,WUHU216HW,2013-05-09 03:51:00,
2013-05-08 23:56:00,58.7,11.5,29.94,WNW,293,0.2,1.3,16,0.02,,,0.30,WUHU216HW,2013-05-09 03:56:00,